createdAt,value
2023-04-13T00:01:21.647Z,98.44
2023-04-13T00:03:25.504Z,97.88
2023-04-13T00:05:30.106Z,98.27
2023-04-13T00:07:34.166Z,98.36
2023-04-13T00:09:39.263Z,97.72
2023-04-13T00:11:42.482Z,97.44
2023-04-13T00:13:47.813Z,97.26
2023-04-13T00:15:51.663Z,97.47
2023-04-13T00:17:55.412Z,97.33
2023-04-13T00:19:59.396Z,97.22
2023-04-13T00:22:03.004Z,97.12
2023-04-13T00:24:07.272Z,97.14
2023-04-13T00:26:12.357Z,96.98
2023-04-13T00:28:16.896Z,96.70
2023-04-13T00:30:21.518Z,96.80
2023-04-13T00:32:26.150Z,96.48
2023-04-13T00:34:29.759Z,96.49
2023-04-13T00:36:36.543Z,96.59
2023-04-13T00:38:42.648Z,97.07
2023-04-13T00:40:47.414Z,96.89
2023-04-13T00:42:52.636Z,96.57
2023-04-13T00:44:55.912Z,96.85
2023-04-13T00:46:59.637Z,96.92
2023-04-13T00:49:03.102Z,96.59
2023-04-13T00:51:07.140Z,96.55
2023-04-13T00:53:13.494Z,96.69
2023-04-13T00:55:21.519Z,97.15
2023-04-13T00:57:27.428Z,97.38
2023-04-13T00:59:32.708Z,97.02
2023-04-13T01:01:46.022Z,96.80
2023-04-13T01:03:50.025Z,97.59
2023-04-13T01:06:13.677Z,97.54
2023-04-13T01:08:23.632Z,97.36
2023-04-13T01:10:32.529Z,97.59
2023-04-13T01:12:43.285Z,97.30
2023-04-13T01:14:50.439Z,96.70
2023-04-13T01:16:58.557Z,96.58
2023-04-13T01:19:02.989Z,96.13
2023-04-13T01:21:09.049Z,96.14
2023-04-13T01:23:26.544Z,95.68
2023-04-13T01:25:39.496Z,96.05
2023-04-13T01:27:49.368Z,95.69
2023-04-13T01:29:57.010Z,95.47
2023-04-13T01:32:01.585Z,95.36
2023-04-13T01:34:05.143Z,95.14
2023-04-13T01:36:10.544Z,95.14
2023-04-13T01:38:14.427Z,95.18
2023-04-13T01:40:19.423Z,95.16
2023-04-13T01:42:28.774Z,94.70
2023-04-13T01:44:36.178Z,94.83
2023-04-13T01:46:46.587Z,94.65
2023-04-13T01:49:11.466Z,94.41
2023-04-13T01:51:24.459Z,94.56
2023-04-13T01:53:38.144Z,93.98
2023-04-13T01:55:43.197Z,93.78
2023-04-13T01:57:47.469Z,93.53
2023-04-13T01:59:52.890Z,93.20
2023-04-13T02:01:59.503Z,92.39
2023-04-13T02:04:03.915Z,92.30
2023-04-13T02:06:09.873Z,92.19
2023-04-13T02:08:18.501Z,92.20
2023-04-13T02:10:23.500Z,91.78
2023-04-13T02:12:26.971Z,92.17
2023-04-13T02:14:31.171Z,92.05
2023-04-13T02:16:36.260Z,91.64
2023-04-13T02:18:41.200Z,91.94
2023-04-13T02:20:44.496Z,91.24
2023-04-13T02:22:48.182Z,91.52
2023-04-13T02:24:51.846Z,91.22
2023-04-13T02:26:56.664Z,91.02
2023-04-13T02:29:01.200Z,91.15
2023-04-13T02:31:06.033Z,90.72
2023-04-13T02:33:11.239Z,90.79
2023-04-13T02:35:14.888Z,90.46
2023-04-13T02:37:18.154Z,90.18
2023-04-13T02:39:21.427Z,89.81
2023-04-13T02:41:25.972Z,89.95
2023-04-13T02:43:30.056Z,90.11
2023-04-13T02:45:34.177Z,89.88
2023-04-13T02:47:40.408Z,89.45
2023-04-13T02:49:45.970Z,89.72
2023-04-13T02:51:58.695Z,89.26
2023-04-13T02:54:18.910Z,89.42
2023-04-13T02:56:25.581Z,89.45
2023-04-13T02:58:32.717Z,89.24
2023-04-13T03:00:39.992Z,88.94
2023-04-13T03:02:48.093Z,89.11
2023-04-13T03:04:56.404Z,89.05
2023-04-13T03:07:05.338Z,89.18
2023-04-13T03:09:09.869Z,89.15
2023-04-13T03:11:21.491Z,89.22
2023-04-13T03:13:30.426Z,89.48
2023-04-13T03:15:35.141Z,89.18
2023-04-13T03:17:41.470Z,88.94
2023-04-13T03:19:47.668Z,89.14
2023-04-13T03:21:52.873Z,89.08
2023-04-13T03:24:00.309Z,89.17
2023-04-13T03:26:03.902Z,89.26
2023-04-13T03:28:07.154Z,89.22
2023-04-13T03:30:16.211Z,89.17
2023-04-13T03:32:27.750Z,89.06
2023-04-13T03:34:36.141Z,89.27
2023-04-13T03:36:45.131Z,89.33
2023-04-13T03:38:49.957Z,89.44
2023-04-13T03:40:54.016Z,89.45
2023-04-13T03:42:57.515Z,89.77
2023-04-13T03:45:04.199Z,89.31
2023-04-13T03:47:09.679Z,89.57
2023-04-13T03:49:14.035Z,89.28
2023-04-13T03:51:17.499Z,89.21
2023-04-13T03:53:25.680Z,89.20
2023-04-13T03:55:33.098Z,89.06
2023-04-13T03:57:41.916Z,89.43
2023-04-13T03:59:50.565Z,89.64
2023-04-13T04:02:03.248Z,89.81
2023-04-13T04:04:07.920Z,89.66
2023-04-13T04:06:12.675Z,89.58
2023-04-13T04:08:20.359Z,89.53
2023-04-13T04:10:24.879Z,90.08
2023-04-13T04:12:30.164Z,90.23
2023-04-13T04:14:33.438Z,90.13
2023-04-13T04:16:45.770Z,90.01
2023-04-13T04:18:51.590Z,89.69
2023-04-13T04:20:56.394Z,89.74
2023-04-13T04:23:05.072Z,89.96
2023-04-13T04:25:22.022Z,89.51
2023-04-13T04:27:29.158Z,90.12
2023-04-13T04:29:37.749Z,89.94
2023-04-13T04:31:58.645Z,90.11
2023-04-13T04:34:02.683Z,89.83
2023-04-13T04:36:14.468Z,89.88
2023-04-13T04:38:30.557Z,90.38
2023-04-13T04:40:38.286Z,90.44
2023-04-13T04:42:45.207Z,90.34
2023-04-13T04:44:58.351Z,90.23
2023-04-13T04:47:04.379Z,90.50
2023-04-13T04:49:12.395Z,90.64
2023-04-13T04:51:16.717Z,90.97
2023-04-13T04:53:21.396Z,91.09
2023-04-13T04:55:25.118Z,91.21
2023-04-13T04:57:29.727Z,90.93
2023-04-13T04:59:35.239Z,91.64
2023-04-13T05:01:40.601Z,91.67
2023-04-13T05:03:48.210Z,91.35
2023-04-13T05:06:14.134Z,91.84
2023-04-13T05:08:19.724Z,91.50
2023-04-13T05:10:28.418Z,91.81
2023-04-13T05:12:36.771Z,91.81
2023-04-13T05:14:42.356Z,91.72
2023-04-13T05:16:46.981Z,91.81
2023-04-13T05:19:01.136Z,92.02
2023-04-13T05:21:23.351Z,92.05
2023-04-13T05:23:33.853Z,91.87
2023-04-13T05:25:42.640Z,91.60
2023-04-13T05:27:54.041Z,91.78
2023-04-13T05:30:00.192Z,91.87
2023-04-13T05:32:04.151Z,91.63
2023-04-13T05:34:08.646Z,91.44
2023-04-13T05:36:14.072Z,91.31
2023-04-13T05:38:19.233Z,90.95
2023-04-13T05:40:22.944Z,91.05
2023-04-13T05:42:26.587Z,90.62
2023-04-13T05:44:30.052Z,90.76
2023-04-13T05:46:35.428Z,90.41
2023-04-13T05:48:43.691Z,90.51
2023-04-13T05:50:49.030Z,90.50
2023-04-13T05:52:52.962Z,90.17
2023-04-13T05:54:58.229Z,89.96
2023-04-13T05:57:03.341Z,89.71
2023-04-13T05:59:06.834Z,89.92
2023-04-13T06:01:12.383Z,89.58
2023-04-13T06:03:20.807Z,89.67
2023-04-13T06:05:24.973Z,89.66
2023-04-13T06:07:29.812Z,89.95
2023-04-13T06:09:33.335Z,89.44
2023-04-13T06:11:37.113Z,89.52
2023-04-13T06:13:41.430Z,89.09
2023-04-13T06:15:45.035Z,89.30
2023-04-13T06:17:48.858Z,88.89
2023-04-13T06:19:54.581Z,89.44
2023-04-13T06:21:58.859Z,88.90
2023-04-13T06:24:02.749Z,89.08
2023-04-13T06:26:12.192Z,87.93
2023-04-13T06:28:29.059Z,85.67
2023-04-13T06:30:34.339Z,82.25
2023-04-13T06:32:42.765Z,79.68
2023-04-13T06:34:47.118Z,77.05
2023-04-13T06:36:54.283Z,74.38
2023-04-13T06:39:00.978Z,73.23
2023-04-13T06:41:07.255Z,71.50
2023-04-13T06:43:26.237Z,70.81
2023-04-13T06:46:00.399Z,69.76
2023-04-13T06:48:08.308Z,70.13
2023-04-13T06:50:15.904Z,67.53
2023-04-13T06:52:22.412Z,67.26
2023-04-13T06:54:26.206Z,66.37
2023-04-13T06:56:36.301Z,65.14
2023-04-13T06:58:40.482Z,63.92
2023-04-13T07:00:44.258Z,64.08
2023-04-13T07:02:48.189Z,62.75
2023-04-13T07:04:54.238Z,62.56
2023-04-13T07:06:59.905Z,62.00
2023-04-13T07:09:05.281Z,62.16
2023-04-13T07:11:10.365Z,61.59
2023-04-13T07:13:16.106Z,60.74
2023-04-13T07:15:19.658Z,60.98
2023-04-13T07:17:23.410Z,60.53
2023-04-13T07:19:27.529Z,60.55
2023-04-13T07:21:32.193Z,60.12
2023-04-13T07:23:39.935Z,59.12
2023-04-13T07:25:45.229Z,58.23
2023-04-13T07:27:57.328Z,58.77
2023-04-13T07:30:02.001Z,58.53
2023-04-13T07:32:12.872Z,58.92
2023-04-13T07:34:17.677Z,58.39
2023-04-13T07:36:24.573Z,58.75
2023-04-13T07:38:31.136Z,58.42
2023-04-13T07:40:36.036Z,57.83
2023-04-13T07:42:45.480Z,57.05
2023-04-13T07:44:49.484Z,57.33
2023-04-13T07:46:53.214Z,57.11
2023-04-13T07:48:57.169Z,56.87
2023-04-13T07:51:05.881Z,57.10
2023-04-13T07:53:09.847Z,57.26
2023-04-13T07:55:13.608Z,58.38
2023-04-13T07:57:23.376Z,59.24
2023-04-13T07:59:34.453Z,60.49
2023-04-13T08:01:37.677Z,62.26
2023-04-13T08:03:41.870Z,64.69
2023-04-13T08:05:52.543Z,66.00
2023-04-13T08:07:56.042Z,66.85
2023-04-13T08:09:59.786Z,67.94
2023-04-13T08:12:05.215Z,68.80
2023-04-13T08:14:11.856Z,69.45
2023-04-13T08:16:18.981Z,69.88
2023-04-13T08:18:22.900Z,69.97
2023-04-13T08:20:26.637Z,70.18
2023-04-13T08:22:31.297Z,70.71
2023-04-13T08:24:36.988Z,70.98
2023-04-13T08:26:41.568Z,71.13
2023-04-13T08:28:45.321Z,71.19
2023-04-13T08:30:48.969Z,71.81
2023-04-13T08:32:54.256Z,71.71
2023-04-13T08:34:59.787Z,71.86
2023-04-13T08:37:03.522Z,71.88
2023-04-13T08:39:10.651Z,71.56
2023-04-13T08:41:18.807Z,71.83
2023-04-13T08:43:26.146Z,71.30
2023-04-13T08:45:30.789Z,71.59
2023-04-13T08:47:35.613Z,71.19
2023-04-13T08:49:42.782Z,71.33
2023-04-13T08:52:14.437Z,71.23
2023-04-13T08:54:19.904Z,70.30
2023-04-13T08:56:37.633Z,69.62
2023-04-13T08:58:51.197Z,69.07
2023-04-13T09:00:55.189Z,68.98
2023-04-13T09:03:13.525Z,68.76
2023-04-13T09:05:26.624Z,68.60
2023-04-13T09:07:35.104Z,67.65
2023-04-13T09:09:46.082Z,67.70
2023-04-13T09:11:52.086Z,66.22
2023-04-13T09:13:56.349Z,64.44
2023-04-13T09:16:00.236Z,64.50
2023-04-13T09:18:16.902Z,64.35
2023-04-13T09:20:34.571Z,63.78
2023-04-13T09:22:40.129Z,62.31
2023-04-13T09:24:44.248Z,62.15
2023-04-13T09:26:48.546Z,61.32
2023-04-13T09:28:56.109Z,60.99
2023-04-13T09:31:05.798Z,61.24
2023-04-13T09:33:11.316Z,61.27
2023-04-13T09:35:15.299Z,60.78
2023-04-13T09:37:20.657Z,59.97
2023-04-13T09:39:28.589Z,58.91
2023-04-13T09:41:34.030Z,59.16
2023-04-13T09:43:38.225Z,58.12
2023-04-13T09:45:45.193Z,58.50
2023-04-13T09:47:49.059Z,58.28
2023-04-13T09:49:52.671Z,57.86
2023-04-13T09:51:56.706Z,58.36
2023-04-13T09:54:02.138Z,58.38
2023-04-13T09:56:06.254Z,58.95
2023-04-13T09:58:11.551Z,59.31
2023-04-13T10:00:21.166Z,59.66
2023-04-13T10:02:25.386Z,58.94
2023-04-13T10:04:29.663Z,59.17
2023-04-13T10:06:34.197Z,58.90
2023-04-13T10:08:39.932Z,57.95
2023-04-13T10:10:45.288Z,57.50
2023-04-13T10:12:51.489Z,57.02
2023-04-13T10:15:01.019Z,57.71
2023-04-13T10:17:37.779Z,57.86
2023-04-13T10:19:46.802Z,57.95
2023-04-13T10:21:52.718Z,57.55
2023-04-13T10:23:57.413Z,57.41
2023-04-13T10:26:04.198Z,57.19
2023-04-13T10:28:07.885Z,57.07
2023-04-13T10:30:16.992Z,56.77
2023-04-13T10:32:24.857Z,56.38
2023-04-13T10:34:29.999Z,56.14
2023-04-13T10:36:40.785Z,55.73
2023-04-13T10:38:45.028Z,56.13
2023-04-13T10:40:49.547Z,56.43
2023-04-13T10:42:55.066Z,55.92
2023-04-13T10:44:59.387Z,55.36
2023-04-13T10:47:06.255Z,54.82
2023-04-13T10:49:10.224Z,54.41
2023-04-13T10:51:13.954Z,54.15
2023-04-13T10:53:27.004Z,53.64
2023-04-13T10:55:30.877Z,53.75
2023-04-13T10:57:36.796Z,53.68
2023-04-13T10:59:56.204Z,53.74
2023-04-13T11:02:02.086Z,53.77
2023-04-13T11:04:10.278Z,52.75
2023-04-13T11:06:17.838Z,52.89
2023-04-13T11:08:22.074Z,52.82
2023-04-13T11:10:27.611Z,52.11
2023-04-13T11:12:31.544Z,51.81
2023-04-13T11:14:36.351Z,52.09
2023-04-13T11:16:49.486Z,52.42
2023-04-13T11:19:02.801Z,52.40
2023-04-13T11:21:08.747Z,51.61
2023-04-13T11:23:18.334Z,51.08
2023-04-13T11:25:21.968Z,51.13
2023-04-13T11:27:27.228Z,50.66
2023-04-13T11:29:31.807Z,50.97
2023-04-13T11:31:39.323Z,50.58
2023-04-13T11:33:44.991Z,50.10
2023-04-13T11:35:50.381Z,50.32
2023-04-13T11:37:57.463Z,49.65
2023-04-13T11:40:09.940Z,50.19
2023-04-13T11:42:14.124Z,50.54
2023-04-13T11:44:19.418Z,51.55
2023-04-13T11:46:26.156Z,51.54
2023-04-13T11:48:30.054Z,51.12
2023-04-13T11:50:35.547Z,50.63
2023-04-13T11:52:40.803Z,50.15
2023-04-13T11:54:45.055Z,49.57
2023-04-13T11:56:49.220Z,50.14
2023-04-13T11:58:54.099Z,50.31
2023-04-13T12:01:03.294Z,50.31
2023-04-13T12:03:34.190Z,50.46
2023-04-13T12:05:40.335Z,50.40
2023-04-13T12:07:44.899Z,50.72
2023-04-13T12:12:20.486Z,50.05
2023-04-13T12:18:46.587Z,48.94
2023-04-13T12:20:52.407Z,48.20
2023-04-13T12:23:02.957Z,48.68
2023-04-13T12:25:17.882Z,48.40
2023-04-13T12:27:21.635Z,48.43
2023-04-13T12:29:25.776Z,48.51
2023-04-13T12:31:36.280Z,48.34
2023-04-13T12:33:40.689Z,47.48
2023-04-13T12:35:44.305Z,47.40
2023-04-13T12:37:50.410Z,47.14
2023-04-13T12:39:54.042Z,47.46
2023-04-13T12:41:58.053Z,47.64
2023-04-13T12:44:01.777Z,48.01
2023-04-13T12:46:05.301Z,47.30
2023-04-13T12:48:09.677Z,46.79
2023-04-13T12:50:14.330Z,45.99
2023-04-13T12:52:17.985Z,45.70
2023-04-13T12:54:23.035Z,46.78
2023-04-13T12:56:26.744Z,45.92
2023-04-13T12:58:30.481Z,46.09
2023-04-13T13:00:34.087Z,45.93
2023-04-13T13:02:38.289Z,46.06
2023-04-13T13:04:42.595Z,46.27
2023-04-13T13:06:46.205Z,46.49
2023-04-13T13:08:50.193Z,46.61
2023-04-13T13:10:55.479Z,47.11
2023-04-13T13:13:00.714Z,46.70
2023-04-13T13:15:06.258Z,46.44
2023-04-13T13:17:10.360Z,47.73
2023-04-13T13:19:15.140Z,50.21
2023-04-13T13:21:19.616Z,52.08
2023-04-13T13:23:26.911Z,52.81
2023-04-13T13:25:31.340Z,53.45
2023-04-13T13:29:47.012Z,53.73
2023-04-13T13:31:51.617Z,53.57
2023-04-13T13:33:55.903Z,53.57
2023-04-13T13:35:59.640Z,53.78
2023-04-13T13:38:03.840Z,53.92
2023-04-13T13:40:11.249Z,54.27
2023-04-13T13:42:14.980Z,54.41
2023-04-13T13:44:20.219Z,54.72
2023-04-13T13:46:24.175Z,55.64
2023-04-13T13:48:35.515Z,56.23
2023-04-13T13:51:09.200Z,56.52
2023-04-13T13:53:17.642Z,56.62
2023-04-13T13:55:23.491Z,56.52
2023-04-13T13:57:27.647Z,56.40
2023-04-13T13:59:51.228Z,56.06
2023-04-13T14:01:55.700Z,55.52
2023-04-13T14:04:04.848Z,55.40
2023-04-13T14:06:09.935Z,55.13
2023-04-13T14:08:16.962Z,55.12
2023-04-13T14:10:23.840Z,54.94
2023-04-13T14:12:28.562Z,55.20
2023-04-13T14:14:54.705Z,55.90
2023-04-13T14:16:58.845Z,56.20
2023-04-13T14:19:03.096Z,55.23
2023-04-13T14:21:08.048Z,53.96
2023-04-13T14:23:12.195Z,53.86
2023-04-13T14:25:16.169Z,56.73
2023-04-13T14:27:20.080Z,61.76
2023-04-13T14:29:23.740Z,64.21
2023-04-13T14:31:29.404Z,68.15
2023-04-13T14:33:33.220Z,70.59
2023-04-13T14:35:39.155Z,73.43
2023-04-13T14:37:43.014Z,75.22
2023-04-13T14:39:46.878Z,76.84
2023-04-13T14:41:50.902Z,79.00
2023-04-13T14:43:54.826Z,79.24
2023-04-13T14:45:58.392Z,79.75
2023-04-13T14:48:03.569Z,79.71
2023-04-13T14:50:10.012Z,80.33
2023-04-13T14:52:14.764Z,80.44
2023-04-13T14:54:18.533Z,80.33
2023-04-13T14:56:22.009Z,80.66
2023-04-13T14:58:25.638Z,79.61
2023-04-13T15:00:39.012Z,78.33
2023-04-13T15:02:43.335Z,77.80
2023-04-13T15:04:49.372Z,76.81
2023-04-13T15:06:54.364Z,73.82
2023-04-13T15:08:58.288Z,73.25
2023-04-13T15:11:02.153Z,73.08
2023-04-13T15:13:07.294Z,72.30
2023-04-13T15:15:12.043Z,71.57
2023-04-13T15:17:15.517Z,71.10
2023-04-13T15:19:19.036Z,70.60
2023-04-13T15:21:24.096Z,68.98
2023-04-13T15:23:27.284Z,67.53
2023-04-13T15:25:31.216Z,66.92
2023-04-13T15:27:36.194Z,66.37
2023-04-13T15:29:39.532Z,63.33
2023-04-13T15:31:43.218Z,62.85
2023-04-13T15:33:47.008Z,63.56
2023-04-13T15:35:52.518Z,62.81
2023-04-13T15:37:57.939Z,61.19
2023-04-13T15:40:01.697Z,60.69
2023-04-13T15:42:05.790Z,60.34
2023-04-13T15:44:09.308Z,59.62
2023-04-13T15:46:14.082Z,59.14
2023-04-13T15:48:19.781Z,58.90
2023-04-13T15:50:25.105Z,58.66
2023-04-13T15:52:29.544Z,58.95
2023-04-13T15:54:36.320Z,59.35
2023-04-13T15:56:39.916Z,59.17
2023-04-13T15:58:44.683Z,57.58
2023-04-13T16:00:48.726Z,56.90
2023-04-13T16:02:52.380Z,55.80
2023-04-13T16:04:55.928Z,56.90
2023-04-13T16:07:12.900Z,56.58
2023-04-13T16:09:19.425Z,56.77
2023-04-13T16:11:24.511Z,55.25
2023-04-13T16:13:41.465Z,55.40
2023-04-13T16:15:57.433Z,55.75
2023-04-13T16:18:01.962Z,55.52
2023-04-13T16:20:17.822Z,56.28
2023-04-13T16:22:21.320Z,56.65
2023-04-13T16:24:24.809Z,58.16
2023-04-13T16:26:29.937Z,58.37
2023-04-13T16:28:34.701Z,58.33
2023-04-13T16:30:39.788Z,57.56
2023-04-13T16:32:44.643Z,57.08
2023-04-13T16:34:48.218Z,57.39
2023-04-13T16:36:52.436Z,57.95
2023-04-13T16:38:55.896Z,58.44
2023-04-13T16:40:59.445Z,59.83
2023-04-13T16:43:05.015Z,59.46
2023-04-13T16:45:13.731Z,59.58
2023-04-13T16:47:18.230Z,59.16
2023-04-13T16:49:21.932Z,58.75
2023-04-13T16:51:27.496Z,58.56
2023-04-13T16:53:31.585Z,57.71
2023-04-13T16:55:35.148Z,58.27
2023-04-13T16:57:38.749Z,58.04
2023-04-13T16:59:43.809Z,58.17
2023-04-13T17:01:47.860Z,57.93
2023-04-13T17:03:51.424Z,56.89
2023-04-13T17:05:55.598Z,57.32
2023-04-13T17:07:59.153Z,56.31
2023-04-13T17:10:03.270Z,56.41
2023-04-13T17:12:07.748Z,55.83
2023-04-13T17:14:11.904Z,56.58
2023-04-13T17:16:18.035Z,56.42
2023-04-13T17:18:22.604Z,56.85
2023-04-13T17:20:27.875Z,56.54
2023-04-13T17:22:32.209Z,56.83
2023-04-13T17:24:37.040Z,57.22
2023-04-13T17:26:41.875Z,57.21
2023-04-13T17:28:45.842Z,57.40
2023-04-13T17:30:50.683Z,57.85
2023-04-13T17:32:58.217Z,58.15
2023-04-13T17:35:02.062Z,58.23
2023-04-13T17:37:07.601Z,57.97
2023-04-13T17:39:11.461Z,57.59
2023-04-13T17:41:15.445Z,58.08
2023-04-13T17:43:19.803Z,57.75
2023-04-13T17:45:23.779Z,57.49
2023-04-13T17:47:27.561Z,56.87
2023-04-13T17:49:33.276Z,57.45
2023-04-13T17:51:36.905Z,57.66
2023-04-13T17:53:40.722Z,57.61
2023-04-13T17:55:44.625Z,57.83
2023-04-13T17:57:50.352Z,58.02
2023-04-13T17:59:54.200Z,58.33
2023-04-13T18:02:00.306Z,58.06
2023-04-13T18:04:04.304Z,58.20
2023-04-13T18:06:09.679Z,58.22
2023-04-13T18:08:13.370Z,58.25
2023-04-13T18:10:16.950Z,59.19
2023-04-13T18:12:22.735Z,58.63
2023-04-13T18:14:26.483Z,58.74
2023-04-13T18:16:32.100Z,59.29
2023-04-13T18:18:35.908Z,59.19
2023-04-13T18:20:39.629Z,59.29
2023-04-13T18:22:44.811Z,60.11
2023-04-13T18:24:48.410Z,59.93
2023-04-13T18:26:53.106Z,60.33
2023-04-13T18:28:57.200Z,60.29
2023-04-13T18:31:02.364Z,60.58
2023-04-13T18:33:06.523Z,60.66
2023-04-13T18:35:12.427Z,60.79
2023-04-13T18:37:16.168Z,61.14
2023-04-13T18:39:21.730Z,60.53
2023-04-13T18:41:25.508Z,60.73
2023-04-13T18:43:29.591Z,59.96
2023-04-13T18:45:33.373Z,60.01
2023-04-13T18:47:37.419Z,59.92
2023-04-13T18:49:41.477Z,60.04
2023-04-13T18:51:45.482Z,60.03
2023-04-13T18:53:49.393Z,59.80
2023-04-13T18:55:54.571Z,59.93
2023-04-13T18:57:58.394Z,59.55
2023-04-13T19:00:01.974Z,59.22
2023-04-13T19:02:05.758Z,59.69
2023-04-13T19:04:09.814Z,59.32
2023-04-13T19:06:13.738Z,59.14
2023-04-13T19:08:17.590Z,59.44
2023-04-13T19:10:22.703Z,59.60
2023-04-13T19:12:27.775Z,59.95
2023-04-13T19:14:31.369Z,60.03
2023-04-13T19:16:36.859Z,59.49
2023-04-13T19:18:40.555Z,59.93
2023-04-13T19:20:44.074Z,60.53
2023-04-13T19:22:47.860Z,60.00
2023-04-13T19:24:52.813Z,60.87
2023-04-13T19:26:56.976Z,60.54
2023-04-13T19:29:04.216Z,60.93
2023-04-13T19:31:08.943Z,61.87
2023-04-13T19:33:12.545Z,61.50
2023-04-13T19:35:16.801Z,61.77
2023-04-13T19:37:20.632Z,62.15
2023-04-13T19:39:24.638Z,62.45
2023-04-13T19:41:29.705Z,63.07
2023-04-13T19:43:34.636Z,62.99
2023-04-13T19:45:40.977Z,63.47
2023-04-13T19:47:47.039Z,64.20
2023-04-13T19:49:50.865Z,63.79
2023-04-13T19:51:54.426Z,63.99
2023-04-13T19:54:00.405Z,64.73
2023-04-13T19:56:04.218Z,64.66
2023-04-13T19:58:09.105Z,65.44
2023-04-13T20:00:22.658Z,65.71
2023-04-13T20:02:28.680Z,66.40
2023-04-13T20:04:33.746Z,67.03
2023-04-13T20:06:38.031Z,66.90
2023-04-13T20:08:44.870Z,68.22
2023-04-13T20:10:49.019Z,68.15
2023-04-13T20:12:52.941Z,69.01
2023-04-13T20:14:56.718Z,69.74
2023-04-13T20:17:00.534Z,70.55
2023-04-13T20:19:06.889Z,71.78
2023-04-13T20:21:10.960Z,72.51
2023-04-13T20:23:15.329Z,72.21
2023-04-13T20:25:20.218Z,72.01
2023-04-13T20:27:26.070Z,72.16
2023-04-13T20:29:30.980Z,72.73
2023-04-13T20:31:34.862Z,72.72
2023-04-13T20:33:38.739Z,72.25
2023-04-13T20:35:43.990Z,72.65
2023-04-13T20:37:48.088Z,73.02
2023-04-13T20:39:53.137Z,73.54
2023-04-13T20:41:57.340Z,73.22
2023-04-13T20:44:01.699Z,73.40
2023-04-13T20:46:06.700Z,73.47
2023-04-13T20:50:23.850Z,73.84
2023-04-13T20:52:30.856Z,74.38
2023-04-13T20:54:35.278Z,74.08
2023-04-13T20:56:39.656Z,74.17
2023-04-13T20:58:44.101Z,74.67
2023-04-13T21:00:48.412Z,75.50
2023-04-13T21:02:53.437Z,75.68
2023-04-13T21:04:57.982Z,75.84
2023-04-13T21:07:02.496Z,75.79
2023-04-13T21:09:09.014Z,76.10
2023-04-13T21:11:13.473Z,76.63
2023-04-13T21:13:18.375Z,76.29
2023-04-13T21:15:22.781Z,76.80
2023-04-13T21:17:27.183Z,76.34
2023-04-13T21:19:33.479Z,76.67
2023-04-13T21:21:37.902Z,76.91
2023-04-13T21:23:41.482Z,76.97
2023-04-13T21:25:47.932Z,76.85
2023-04-13T21:27:51.448Z,77.59
2023-04-13T21:29:55.045Z,77.84
2023-04-13T21:31:58.699Z,77.71
2023-04-13T21:34:03.876Z,77.53
2023-04-13T21:38:17.722Z,77.80
2023-04-13T21:40:24.222Z,78.01
2023-04-13T21:42:29.172Z,78.71
2023-04-13T21:44:32.803Z,78.65
2023-04-13T21:46:36.656Z,78.67
2023-04-13T21:48:40.889Z,79.08
2023-04-13T21:50:44.524Z,79.35
2023-04-13T21:52:48.216Z,79.56
2023-04-13T21:54:51.894Z,79.88
2023-04-13T21:56:55.585Z,79.83
2023-04-13T21:59:02.192Z,80.07
2023-04-13T22:01:07.018Z,79.54
2023-04-13T22:03:10.751Z,79.34
2023-04-13T22:05:16.560Z,79.07
2023-04-13T22:07:31.502Z,78.88
2023-04-13T22:09:42.979Z,78.73
2023-04-13T22:11:46.622Z,78.52
2023-04-13T22:13:50.236Z,78.30
2023-04-13T22:15:55.636Z,78.17
2023-04-13T22:17:59.496Z,78.22
2023-04-13T22:20:03.060Z,78.35
2023-04-13T22:22:06.618Z,78.59
2023-04-13T22:24:10.113Z,79.31
2023-04-13T22:26:13.753Z,79.35
2023-04-13T22:28:17.529Z,79.30
2023-04-13T22:30:21.687Z,79.83
2023-04-13T22:32:28.777Z,79.82
2023-04-13T22:34:34.787Z,79.87
2023-04-13T22:36:38.451Z,80.87
2023-04-13T22:38:41.942Z,80.60
2023-04-13T22:40:45.858Z,80.14
2023-04-13T22:42:49.573Z,79.90
2023-04-13T22:44:53.227Z,80.13
2023-04-13T22:46:56.943Z,80.22
2023-04-13T22:49:02.403Z,80.72
2023-04-13T22:51:06.233Z,80.55
2023-04-13T22:53:09.736Z,80.62
2023-04-13T22:55:13.392Z,81.25
2023-04-13T22:57:16.900Z,81.63
2023-04-13T22:59:20.608Z,81.26
2023-04-13T23:01:24.246Z,82.01
2023-04-13T23:03:28.502Z,81.75
2023-04-13T23:05:35.132Z,81.63
2023-04-13T23:07:38.674Z,82.16
2023-04-13T23:09:42.238Z,82.50
2023-04-13T23:11:45.761Z,82.92
2023-04-13T23:13:49.218Z,83.20
2023-04-13T23:16:00.823Z,83.92
2023-04-13T23:18:04.623Z,83.35
2023-04-13T23:20:10.765Z,83.99
2023-04-13T23:22:15.744Z,83.77
2023-04-13T23:24:19.519Z,83.78
2023-04-13T23:26:23.252Z,83.56
2023-04-13T23:28:26.812Z,84.43
2023-04-13T23:30:30.455Z,84.28
2023-04-13T23:32:34.102Z,84.49
2023-04-13T23:34:37.864Z,83.61
2023-04-13T23:36:41.918Z,84.20
2023-04-13T23:38:47.013Z,85.28
2023-04-13T23:40:50.722Z,84.56
2023-04-13T23:42:54.519Z,84.99
2023-04-13T23:44:58.190Z,84.84
2023-04-13T23:47:01.914Z,85.19
2023-04-13T23:49:05.952Z,85.53
2023-04-13T23:51:09.444Z,85.42
2023-04-13T23:53:13.260Z,85.23
2023-04-13T23:55:18.233Z,85.63
2023-04-13T23:57:22.609Z,85.34
2023-04-13T23:59:26.170Z,85.25
